
<gpx xmlns="http://www.topografix.com/GPX/1/1" xmlns:gpxx="http://www.garmin.com/xmlschemas/GpxExtensions/v3" xmlns:xsi="http://www.w3.org/2001/XMLSchema-instance" version="1.1" creator="Adze - http://kobotsw.com/apps/adze" xsi:schemaLocation="http://www.topografix.com/GPX/1/1 http://www.topografix.com/GPX/1/1/gpx.xsd http://www.garmin.com/xmlschemas/GpxExtensions/v3 http://www.garmin.com/xmlschemas/GpxExtensionsv3.xsd">
    <metadata>
        <name>Untitled Document</name>
        <link href="http://www.garmin.com"></link>
        <time>2018-02-26T03:51:49.250Z</time>
    </metadata>
    <wpt lon="101.357937" lat="14.543573">
        <time>2015-11-29T08:42:38Z</time>
        <name>DNA Resort</name>
        <cmt>PAK CHONG</cmt>
        <desc>PAK CHONG</desc>
        <sym>Lodging</sym>
        <extensions>
            <gpxx:WaypointExtension xmlns:gpxx="http://www.garmin.com/xmlschemas/GpxExtensions/v3">
                <gpxx:DisplayMode>SymbolAndName</gpxx:DisplayMode>
            </gpxx:WaypointExtension>
        </extensions>
    </wpt>
    <wpt lon="101.332681" lat="14.544457">
        <time>2015-11-29T08:45:27Z</time>
        <name>Water Saturday</name>
        <cmt>NAKHON RATCHASIMA 1016 RURAL RD.</cmt>
        <desc>NAKHON RATCHASIMA 1016 RURAL RD.</desc>
        <sym>Drinking Water</sym>
        <extensions>
            <gpxx:WaypointExtension xmlns:gpxx="http://www.garmin.com/xmlschemas/GpxExtensions/v3">
                <gpxx:DisplayMode>SymbolAndName</gpxx:DisplayMode>
            </gpxx:WaypointExtension>
        </extensions>
    </wpt>
    <trk>
        <name>Saturday</name>
        <extensions>
            <gpxx:TrackExtension xmlns:gpxx="http://www.garmin.com/xmlschemas/GpxExtensions/v3">
                <gpxx:DisplayColor>Red</gpxx:DisplayColor>
            </gpxx:TrackExtension>
        </extensions>
        <trkseg>
            <trkpt lon="101.356924" lat="14.542859">
                <ele>398.600000</ele>
                <time>2015-11-28T06:00:39Z</time>
            </trkpt>
            <trkpt lon="101.356800" lat="14.542329">
                <ele>395.720000</ele>
                <time>2015-11-28T06:01:53Z</time>
            </trkpt>
            <trkpt lon="101.357972" lat="14.541646">
                <ele>395.240000</ele>
                <time>2015-11-28T06:02:23Z</time>
            </trkpt>
            <trkpt lon="101.358174" lat="14.541262">
                <ele>393.800000</ele>
                <time>2015-11-28T06:02:34Z</time>
            </trkpt>
            <trkpt lon="101.358131" lat="14.541245">
                <ele>393.320000</ele>
                <time>2015-11-28T06:02:35Z</time>
            </trkpt>
            <trkpt lon="101.356951" lat="14.541359">
                <ele>392.840000</ele>
                <time>2015-11-28T06:02:55Z</time>
            </trkpt>
            <trkpt lon="101.353519" lat="14.541200">
                <ele>397.640000</ele>
                <time>2015-11-28T06:04:02Z</time>
            </trkpt>
            <trkpt lon="101.351553" lat="14.541390">
                <ele>398.120000</ele>
                <time>2015-11-28T06:04:41Z</time>
            </trkpt>
            <trkpt lon="101.345796" lat="14.540166">
                <ele>397.640000</ele>
                <time>2015-11-28T06:06:25Z</time>
            </trkpt>
            <trkpt lon="101.344023" lat="14.539962">
                <ele>400.530000</ele>
                <time>2015-11-28T06:07:00Z</time>
            </trkpt>
            <trkpt lon="101.343974" lat="14.539956">
                <ele>400.530000</ele>
                <time>2015-11-28T06:07:01Z</time>
            </trkpt>
            <trkpt lon="101.342388" lat="14.540105">
                <ele>402.930000</ele>
                <time>2015-11-28T06:07:31Z</time>
            </trkpt>
            <trkpt lon="101.341660" lat="14.540363">
                <ele>405.330000</ele>
                <time>2015-11-28T06:07:46Z</time>
            </trkpt>
            <trkpt lon="101.340672" lat="14.540923">
                <ele>406.290000</ele>
                <time>2015-11-28T06:08:07Z</time>
            </trkpt>
            <trkpt lon="101.340629" lat="14.540914">
                <ele>406.290000</ele>
                <time>2015-11-28T06:08:08Z</time>
            </trkpt>
            <trkpt lon="101.340219" lat="14.540123">
                <ele>402.450000</ele>
                <time>2015-11-28T06:08:23Z</time>
            </trkpt>
            <trkpt lon="101.340096" lat="14.539343">
                <ele>404.370000</ele>
                <time>2015-11-28T06:08:38Z</time>
            </trkpt>
            <trkpt lon="101.339607" lat="14.538640">
                <ele>407.260000</ele>
                <time>2015-11-28T06:08:57Z</time>
            </trkpt>
            <trkpt lon="101.338954" lat="14.537096">
                <ele>412.540000</ele>
                <time>2015-11-28T06:09:34Z</time>
            </trkpt>
            <trkpt lon="101.338927" lat="14.537018">
                <ele>412.540000</ele>
                <time>2015-11-28T06:09:36Z</time>
            </trkpt>
            <trkpt lon="101.339031" lat="14.536830">
                <ele>413.500000</ele>
                <time>2015-11-28T06:09:42Z</time>
            </trkpt>
            <trkpt lon="101.340033" lat="14.536421">
                <ele>414.470000</ele>
                <time>2015-11-28T06:10:04Z</time>
            </trkpt>
            <trkpt lon="101.341662" lat="14.535917">
                <ele>414.470000</ele>
                <time>2015-11-28T06:10:35Z</time>
            </trkpt>
            <trkpt lon="101.342706" lat="14.536193">
                <ele>410.140000</ele>
                <time>2015-11-28T06:10:56Z</time>
            </trkpt>
            <trkpt lon="101.343196" lat="14.535885">
                <ele>414.470000</ele>
                <time>2015-11-28T06:11:15Z</time>
            </trkpt>
            <trkpt lon="101.344456" lat="14.536066">
                <ele>416.870000</ele>
                <time>2015-11-28T06:11:45Z</time>
            </trkpt>
            <trkpt lon="101.344810" lat="14.536062">
                <ele>416.870000</ele>
                <time>2015-11-28T06:11:55Z</time>
            </trkpt>
            <trkpt lon="101.346181" lat="14.535904">
                <ele>412.060000</ele>
                <time>2015-11-28T06:12:17Z</time>
            </trkpt>
            <trkpt lon="101.349646" lat="14.536410">
                <ele>402.450000</ele>
                <time>2015-11-28T06:13:10Z</time>
            </trkpt>
            <trkpt lon="101.351021" lat="14.536440">
                <ele>403.890000</ele>
                <time>2015-11-28T06:13:38Z</time>
            </trkpt>
            <trkpt lon="101.353398" lat="14.536474">
                <ele>398.120000</ele>
                <time>2015-11-28T06:14:25Z</time>
            </trkpt>
            <trkpt lon="101.354254" lat="14.536141">
                <ele>397.640000</ele>
                <time>2015-11-28T06:14:43Z</time>
            </trkpt>
            <trkpt lon="101.354760" lat="14.535822">
                <ele>399.080000</ele>
                <time>2015-11-28T06:14:55Z</time>
            </trkpt>
            <trkpt lon="101.355304" lat="14.535456">
                <ele>397.160000</ele>
                <time>2015-11-28T06:15:05Z</time>
            </trkpt>
            <trkpt lon="101.356610" lat="14.534190">
                <ele>395.240000</ele>
                <time>2015-11-28T06:15:35Z</time>
            </trkpt>
            <trkpt lon="101.359098" lat="14.530539">
                <ele>397.160000</ele>
                <time>2015-11-28T06:16:57Z</time>
            </trkpt>
            <trkpt lon="101.359807" lat="14.529719">
                <ele>400.050000</ele>
                <time>2015-11-28T06:17:20Z</time>
            </trkpt>
            <trkpt lon="101.359761" lat="14.528015">
                <ele>406.290000</ele>
                <time>2015-11-28T06:21:37Z</time>
            </trkpt>
            <trkpt lon="101.360940" lat="14.527522">
                <ele>404.370000</ele>
                <time>2015-11-28T06:22:07Z</time>
            </trkpt>
            <trkpt lon="101.360579" lat="14.526280">
                <ele>409.180000</ele>
                <time>2015-11-28T06:22:39Z</time>
            </trkpt>
            <trkpt lon="101.360567" lat="14.526242">
                <ele>401.970000</ele>
                <time>2015-11-28T06:22:50Z</time>
            </trkpt>
            <trkpt lon="101.360562" lat="14.526241">
                <ele>404.370000</ele>
                <time>2015-11-28T06:22:54Z</time>
            </trkpt>
            <trkpt lon="101.360334" lat="14.526041">
                <ele>404.370000</ele>
                <time>2015-11-28T06:23:05Z</time>
            </trkpt>
            <trkpt lon="101.358738" lat="14.525045">
                <ele>413.980000</ele>
                <time>2015-11-28T06:25:12Z</time>
            </trkpt>
            <trkpt lon="101.358469" lat="14.524465">
                <ele>416.870000</ele>
                <time>2015-11-28T06:26:13Z</time>
            </trkpt>
            <trkpt lon="101.358679" lat="14.524999">
                <ele>414.950000</ele>
                <time>2015-11-28T06:27:45Z</time>
            </trkpt>
            <trkpt lon="101.357380" lat="14.524883">
                <ele>420.230000</ele>
                <time>2015-11-28T06:29:06Z</time>
            </trkpt>
            <trkpt lon="101.355751" lat="14.525086">
                <ele>431.290000</ele>
                <time>2015-11-28T06:31:43Z</time>
            </trkpt>
            <trkpt lon="101.355465" lat="14.525228">
                <ele>433.210000</ele>
                <time>2015-11-28T06:32:09Z</time>
            </trkpt>
            <trkpt lon="101.353461" lat="14.526190">
                <ele>445.230000</ele>
                <time>2015-11-28T06:34:58Z</time>
            </trkpt>
            <trkpt lon="101.349940" lat="14.526151">
                <ele>486.080000</ele>
                <time>2015-11-28T06:40:16Z</time>
            </trkpt>
            <trkpt lon="101.346187" lat="14.527166">
                <ele>495.700000</ele>
                <time>2015-11-28T06:42:14Z</time>
            </trkpt>
            <trkpt lon="101.345928" lat="14.527152">
                <ele>495.700000</ele>
                <time>2015-11-28T06:42:20Z</time>
            </trkpt>
            <trkpt lon="101.344892" lat="14.527234">
                <ele>487.050000</ele>
                <time>2015-11-28T06:42:34Z</time>
            </trkpt>
            <trkpt lon="101.343730" lat="14.527700">
                <ele>473.110000</ele>
                <time>2015-11-28T06:42:56Z</time>
            </trkpt>
            <trkpt lon="101.342773" lat="14.527825">
                <ele>463.970000</ele>
                <time>2015-11-28T06:43:17Z</time>
            </trkpt>
            <trkpt lon="101.339477" lat="14.528070">
                <ele>462.530000</ele>
                <time>2015-11-28T06:44:30Z</time>
            </trkpt>
            <trkpt lon="101.338106" lat="14.528017">
                <ele>457.720000</ele>
                <time>2015-11-28T06:44:56Z</time>
            </trkpt>
            <trkpt lon="101.337266" lat="14.527692">
                <ele>459.170000</ele>
                <time>2015-11-28T06:45:17Z</time>
            </trkpt>
            <trkpt lon="101.337064" lat="14.527390">
                <ele>460.130000</ele>
                <time>2015-11-28T06:45:28Z</time>
            </trkpt>
            <trkpt lon="101.336822" lat="14.525696">
                <ele>470.220000</ele>
                <time>2015-11-28T06:46:45Z</time>
            </trkpt>
            <trkpt lon="101.336811" lat="14.525618">
                <ele>470.220000</ele>
                <time>2015-11-28T06:47:11Z</time>
            </trkpt>
            <trkpt lon="101.337065" lat="14.527391">
                <ele>460.130000</ele>
                <time>2015-11-28T06:50:15Z</time>
            </trkpt>
            <trkpt lon="101.336422" lat="14.527629">
                <ele>455.800000</ele>
                <time>2015-11-28T06:50:36Z</time>
            </trkpt>
            <trkpt lon="101.334577" lat="14.527594">
                <ele>481.280000</ele>
                <time>2015-11-28T06:52:25Z</time>
            </trkpt>
            <trkpt lon="101.334499" lat="14.527633">
                <ele>481.760000</ele>
                <time>2015-11-28T06:52:35Z</time>
            </trkpt>
            <trkpt lon="101.334677" lat="14.528175">
                <ele>472.630000</ele>
                <time>2015-11-28T06:54:14Z</time>
            </trkpt>
            <trkpt lon="101.331885" lat="14.528982">
                <ele>468.780000</ele>
                <time>2015-11-28T06:55:37Z</time>
            </trkpt>
            <trkpt lon="101.331853" lat="14.529002">
                <ele>468.300000</ele>
                <time>2015-11-28T06:55:52Z</time>
            </trkpt>
            <trkpt lon="101.331803" lat="14.529317">
                <ele>463.970000</ele>
                <time>2015-11-28T06:56:12Z</time>
            </trkpt>
            <trkpt lon="101.332190" lat="14.530660">
                <ele>451.960000</ele>
                <time>2015-11-28T06:56:36Z</time>
            </trkpt>
            <trkpt lon="101.332021" lat="14.530908">
                <ele>451.960000</ele>
                <time>2015-11-28T06:56:50Z</time>
            </trkpt>
            <trkpt lon="101.331695" lat="14.530830">
                <ele>454.360000</ele>
                <time>2015-11-28T06:57:19Z</time>
            </trkpt>
            <trkpt lon="101.331505" lat="14.531092">
                <ele>452.920000</ele>
                <time>2015-11-28T06:57:34Z</time>
            </trkpt>
            <trkpt lon="101.322293" lat="14.534125">
                <ele>451.480000</ele>
                <time>2015-11-28T07:02:08Z</time>
            </trkpt>
            <trkpt lon="101.321145" lat="14.534645">
                <ele>453.400000</ele>
                <time>2015-11-28T07:02:59Z</time>
            </trkpt>
            <trkpt lon="101.321101" lat="14.534652">
                <ele>453.400000</ele>
                <time>2015-11-28T07:03:01Z</time>
            </trkpt>
            <trkpt lon="101.320928" lat="14.534641">
                <ele>454.360000</ele>
                <time>2015-11-28T07:03:09Z</time>
            </trkpt>
            <trkpt lon="101.320754" lat="14.534427">
                <ele>455.320000</ele>
                <time>2015-11-28T07:03:21Z</time>
            </trkpt>
            <trkpt lon="101.320476" lat="14.534031">
                <ele>456.280000</ele>
                <time>2015-11-28T07:03:45Z</time>
            </trkpt>
            <trkpt lon="101.320001" lat="14.532883">
                <ele>461.090000</ele>
                <time>2015-11-28T07:05:00Z</time>
            </trkpt>
            <trkpt lon="101.319743" lat="14.532681">
                <ele>462.050000</ele>
                <time>2015-11-28T07:05:15Z</time>
            </trkpt>
            <trkpt lon="101.318032" lat="14.532481">
                <ele>470.220000</ele>
                <time>2015-11-28T07:07:06Z</time>
            </trkpt>
            <trkpt lon="101.316959" lat="14.532595">
                <ele>478.390000</ele>
                <time>2015-11-28T07:07:57Z</time>
            </trkpt>
            <trkpt lon="101.316726" lat="14.532657">
                <ele>479.350000</ele>
                <time>2015-11-28T07:08:09Z</time>
            </trkpt>
            <trkpt lon="101.316446" lat="14.532882">
                <ele>477.910000</ele>
                <time>2015-11-28T07:08:31Z</time>
            </trkpt>
            <trkpt lon="101.316268" lat="14.532931">
                <ele>475.990000</ele>
                <time>2015-11-28T07:08:45Z</time>
            </trkpt>
            <trkpt lon="101.315707" lat="14.533611">
                <ele>468.300000</ele>
                <time>2015-11-28T07:09:51Z</time>
            </trkpt>
            <trkpt lon="101.315658" lat="14.534534">
                <ele>457.720000</ele>
                <time>2015-11-28T07:10:43Z</time>
            </trkpt>
            <trkpt lon="101.315367" lat="14.535061">
                <ele>461.090000</ele>
                <time>2015-11-28T07:11:18Z</time>
            </trkpt>
            <trkpt lon="101.315364" lat="14.535848">
                <ele>460.130000</ele>
                <time>2015-11-28T07:12:26Z</time>
            </trkpt>
            <trkpt lon="101.315099" lat="14.536102">
                <ele>459.170000</ele>
                <time>2015-11-28T07:12:47Z</time>
            </trkpt>
            <trkpt lon="101.315017" lat="14.536454">
                <ele>460.610000</ele>
                <time>2015-11-28T07:13:07Z</time>
            </trkpt>
            <trkpt lon="101.315034" lat="14.536689">
                <ele>460.610000</ele>
                <time>2015-11-28T07:13:19Z</time>
            </trkpt>
            <trkpt lon="101.315470" lat="14.536760">
                <ele>458.210000</ele>
                <time>2015-11-28T07:14:57Z</time>
            </trkpt>
            <trkpt lon="101.315936" lat="14.537274">
                <ele>455.800000</ele>
                <time>2015-11-28T07:15:46Z</time>
            </trkpt>
            <trkpt lon="101.315989" lat="14.537315">
                <ele>455.320000</ele>
                <time>2015-11-28T07:15:50Z</time>
            </trkpt>
            <trkpt lon="101.316515" lat="14.537278">
                <ele>454.360000</ele>
                <time>2015-11-28T07:16:22Z</time>
            </trkpt>
            <trkpt lon="101.317110" lat="14.537441">
                <ele>452.920000</ele>
                <time>2015-11-28T07:17:09Z</time>
            </trkpt>
            <trkpt lon="101.317239" lat="14.537432">
                <ele>451.960000</ele>
                <time>2015-11-28T07:17:15Z</time>
            </trkpt>
            <trkpt lon="101.317538" lat="14.537903">
                <ele>451.960000</ele>
                <time>2015-11-28T07:17:48Z</time>
            </trkpt>
            <trkpt lon="101.317506" lat="14.538532">
                <ele>450.030000</ele>
                <time>2015-11-28T07:19:49Z</time>
            </trkpt>
            <trkpt lon="101.317656" lat="14.538744">
                <ele>450.030000</ele>
                <time>2015-11-28T07:20:17Z</time>
            </trkpt>
            <trkpt lon="101.318031" lat="14.538732">
                <ele>450.030000</ele>
                <time>2015-11-28T07:20:40Z</time>
            </trkpt>
            <trkpt lon="101.318070" lat="14.539070">
                <ele>450.520000</ele>
                <time>2015-11-28T07:21:07Z</time>
            </trkpt>
            <trkpt lon="101.318367" lat="14.539333">
                <ele>450.520000</ele>
                <time>2015-11-28T07:21:25Z</time>
            </trkpt>
            <trkpt lon="101.321205" lat="14.538499">
                <ele>444.270000</ele>
                <time>2015-11-28T07:23:34Z</time>
            </trkpt>
            <trkpt lon="101.321613" lat="14.538531">
                <ele>442.340000</ele>
                <time>2015-11-28T07:25:24Z</time>
            </trkpt>
            <trkpt lon="101.321896" lat="14.538897">
                <ele>441.860000</ele>
                <time>2015-11-28T07:27:07Z</time>
            </trkpt>
            <trkpt lon="101.321816" lat="14.539201">
                <ele>438.980000</ele>
                <time>2015-11-28T07:27:19Z</time>
            </trkpt>
            <trkpt lon="101.320236" lat="14.539390">
                <ele>440.900000</ele>
                <time>2015-11-28T07:28:05Z</time>
            </trkpt>
            <trkpt lon="101.319669" lat="14.539657">
                <ele>444.270000</ele>
                <time>2015-11-28T07:28:21Z</time>
            </trkpt>
            <trkpt lon="101.318988" lat="14.539895">
                <ele>445.230000</ele>
                <time>2015-11-28T07:28:39Z</time>
            </trkpt>
            <trkpt lon="101.318718" lat="14.539901">
                <ele>445.230000</ele>
                <time>2015-11-28T07:28:45Z</time>
            </trkpt>
            <trkpt lon="101.318893" lat="14.540467">
                <ele>440.900000</ele>
                <time>2015-11-28T07:29:03Z</time>
            </trkpt>
            <trkpt lon="101.318795" lat="14.541231">
                <ele>441.860000</ele>
                <time>2015-11-28T07:29:20Z</time>
            </trkpt>
            <trkpt lon="101.319680" lat="14.541347">
                <ele>445.230000</ele>
                <time>2015-11-28T07:29:47Z</time>
            </trkpt>
            <trkpt lon="101.319928" lat="14.541636">
                <ele>446.190000</ele>
                <time>2015-11-28T07:29:58Z</time>
            </trkpt>
            <trkpt lon="101.320191" lat="14.541654">
                <ele>442.820000</ele>
                <time>2015-11-28T07:30:06Z</time>
            </trkpt>
            <trkpt lon="101.320567" lat="14.542892">
                <ele>447.630000</ele>
                <time>2015-11-28T07:30:50Z</time>
            </trkpt>
            <trkpt lon="101.320582" lat="14.542919">
                <ele>447.630000</ele>
                <time>2015-11-28T07:30:54Z</time>
            </trkpt>
            <trkpt lon="101.318051" lat="14.544118">
                <ele>452.440000</ele>
                <time>2015-11-28T07:32:04Z</time>
            </trkpt>
            <trkpt lon="101.317946" lat="14.543931">
                <ele>452.440000</ele>
                <time>2015-11-28T07:32:10Z</time>
            </trkpt>
            <trkpt lon="101.317714" lat="14.543552">
                <ele>449.550000</ele>
                <time>2015-11-28T07:32:19Z</time>
            </trkpt>
            <trkpt lon="101.316293" lat="14.543761">
                <ele>452.920000</ele>
                <time>2015-11-28T07:32:54Z</time>
            </trkpt>
            <trkpt lon="101.315242" lat="14.543961">
                <ele>451.480000</ele>
                <time>2015-11-28T07:33:12Z</time>
            </trkpt>
            <trkpt lon="101.311818" lat="14.545463">
                <ele>449.550000</ele>
                <time>2015-11-28T07:34:09Z</time>
            </trkpt>
            <trkpt lon="101.310891" lat="14.545718">
                <ele>453.880000</ele>
                <time>2015-11-28T07:34:29Z</time>
            </trkpt>
            <trkpt lon="101.310697" lat="14.546082">
                <ele>456.280000</ele>
                <time>2015-11-28T07:34:41Z</time>
            </trkpt>
            <trkpt lon="101.310914" lat="14.546612">
                <ele>454.360000</ele>
                <time>2015-11-28T07:34:52Z</time>
            </trkpt>
            <trkpt lon="101.311219" lat="14.547347">
                <ele>447.630000</ele>
                <time>2015-11-28T07:35:03Z</time>
            </trkpt>
            <trkpt lon="101.311631" lat="14.548255">
                <ele>441.380000</ele>
                <time>2015-11-28T07:35:13Z</time>
            </trkpt>
            <trkpt lon="101.312392" lat="14.549040">
                <ele>441.860000</ele>
                <time>2015-11-28T07:35:27Z</time>
            </trkpt>
            <trkpt lon="101.312741" lat="14.549650">
                <ele>448.110000</ele>
                <time>2015-11-28T07:35:44Z</time>
            </trkpt>
            <trkpt lon="101.315241" lat="14.554324">
                <ele>452.440000</ele>
                <time>2015-11-28T07:38:14Z</time>
            </trkpt>
            <trkpt lon="101.315454" lat="14.554412">
                <ele>453.400000</ele>
                <time>2015-11-28T07:38:27Z</time>
            </trkpt>
            <trkpt lon="101.316857" lat="14.553962">
                <ele>449.070000</ele>
                <time>2015-11-28T07:39:09Z</time>
            </trkpt>
            <trkpt lon="101.324267" lat="14.551006">
                <ele>436.580000</ele>
                <time>2015-11-28T07:41:23Z</time>
            </trkpt>
            <trkpt lon="101.325592" lat="14.550287">
                <ele>443.790000</ele>
                <time>2015-11-28T07:41:57Z</time>
            </trkpt>
            <trkpt lon="101.325756" lat="14.550000">
                <ele>443.790000</ele>
                <time>2015-11-28T07:42:04Z</time>
            </trkpt>
            <trkpt lon="101.325999" lat="14.548291">
                <ele>438.020000</ele>
                <time>2015-11-28T07:42:30Z</time>
            </trkpt>
            <trkpt lon="101.326258" lat="14.547828">
                <ele>436.100000</ele>
                <time>2015-11-28T07:42:38Z</time>
            </trkpt>
            <trkpt lon="101.328374" lat="14.546331">
                <ele>431.770000</ele>
                <time>2015-11-28T07:45:03Z</time>
            </trkpt>
            <trkpt lon="101.331683" lat="14.544873">
                <ele>427.440000</ele>
                <time>2015-11-28T07:45:53Z</time>
            </trkpt>
            <trkpt lon="101.332646" lat="14.544440">
                <ele>423.600000</ele>
                <time>2015-11-28T07:46:07Z</time>
            </trkpt>
            <trkpt lon="101.332689" lat="14.544291">
                <ele>423.600000</ele>
                <time>2015-11-28T07:46:19Z</time>
            </trkpt>
            <trkpt lon="101.332673" lat="14.544250">
                <ele>421.190000</ele>
                <time>2015-11-28T07:50:09Z</time>
            </trkpt>
            <trkpt lon="101.332719" lat="14.544234">
                <ele>417.830000</ele>
                <time>2015-11-28T07:57:00Z</time>
            </trkpt>
            <trkpt lon="101.332684" lat="14.544223">
                <ele>417.350000</ele>
                <time>2015-11-28T07:57:48Z</time>
            </trkpt>
            <trkpt lon="101.332984" lat="14.544365">
                <ele>414.470000</ele>
                <time>2015-11-28T08:14:03Z</time>
            </trkpt>
            <trkpt lon="101.335818" lat="14.543075">
                <ele>411.580000</ele>
                <time>2015-11-28T08:14:55Z</time>
            </trkpt>
            <trkpt lon="101.337897" lat="14.542316">
                <ele>406.290000</ele>
                <time>2015-11-28T08:15:28Z</time>
            </trkpt>
            <trkpt lon="101.338974" lat="14.541729">
                <ele>404.850000</ele>
                <time>2015-11-28T08:15:48Z</time>
            </trkpt>
            <trkpt lon="101.339085" lat="14.542106">
                <ele>404.850000</ele>
                <time>2015-11-28T08:15:59Z</time>
            </trkpt>
            <trkpt lon="101.339549" lat="14.542357">
                <ele>406.290000</ele>
                <time>2015-11-28T08:16:12Z</time>
            </trkpt>
            <trkpt lon="101.340319" lat="14.543329">
                <ele>410.140000</ele>
                <time>2015-11-28T08:16:42Z</time>
            </trkpt>
            <trkpt lon="101.340831" lat="14.544054">
                <ele>412.060000</ele>
                <time>2015-11-28T08:17:01Z</time>
            </trkpt>
            <trkpt lon="101.342670" lat="14.546418">
                <ele>416.390000</ele>
                <time>2015-11-28T08:18:06Z</time>
            </trkpt>
            <trkpt lon="101.342835" lat="14.546482">
                <ele>416.870000</ele>
                <time>2015-11-28T08:18:10Z</time>
            </trkpt>
            <trkpt lon="101.343916" lat="14.546736">
                <ele>413.500000</ele>
                <time>2015-11-28T08:18:29Z</time>
            </trkpt>
            <trkpt lon="101.344272" lat="14.547107">
                <ele>412.540000</ele>
                <time>2015-11-28T08:18:37Z</time>
            </trkpt>
            <trkpt lon="101.344565" lat="14.547220">
                <ele>412.060000</ele>
                <time>2015-11-28T08:18:42Z</time>
            </trkpt>
            <trkpt lon="101.345444" lat="14.547231">
                <ele>411.580000</ele>
                <time>2015-11-28T08:18:54Z</time>
            </trkpt>
            <trkpt lon="101.345570" lat="14.547482">
                <ele>411.100000</ele>
                <time>2015-11-28T08:19:00Z</time>
            </trkpt>
            <trkpt lon="101.345495" lat="14.550367">
                <ele>418.790000</ele>
                <time>2015-11-28T08:20:00Z</time>
            </trkpt>
            <trkpt lon="101.342610" lat="14.550479">
                <ele>424.080000</ele>
                <time>2015-11-28T08:21:05Z</time>
            </trkpt>
            <trkpt lon="101.342459" lat="14.550361">
                <ele>424.080000</ele>
                <time>2015-11-28T08:21:09Z</time>
            </trkpt>
            <trkpt lon="101.342242" lat="14.549709">
                <ele>422.640000</ele>
                <time>2015-11-28T08:21:22Z</time>
            </trkpt>
            <trkpt lon="101.341917" lat="14.549806">
                <ele>422.640000</ele>
                <time>2015-11-28T08:22:05Z</time>
            </trkpt>
            <trkpt lon="101.341622" lat="14.550129">
                <ele>424.560000</ele>
                <time>2015-11-28T08:23:01Z</time>
            </trkpt>
            <trkpt lon="101.341562" lat="14.550173">
                <ele>424.560000</ele>
                <time>2015-11-28T08:23:10Z</time>
            </trkpt>
            <trkpt lon="101.341424" lat="14.550136">
                <ele>425.040000</ele>
                <time>2015-11-28T08:23:28Z</time>
            </trkpt>
            <trkpt lon="101.340890" lat="14.550163">
                <ele>425.040000</ele>
                <time>2015-11-28T08:24:55Z</time>
            </trkpt>
            <trkpt lon="101.340163" lat="14.548124">
                <ele>425.040000</ele>
                <time>2015-11-28T08:25:43Z</time>
            </trkpt>
            <trkpt lon="101.339824" lat="14.547962">
                <ele>428.400000</ele>
                <time>2015-11-28T08:25:57Z</time>
            </trkpt>
            <trkpt lon="101.339142" lat="14.547994">
                <ele>437.540000</ele>
                <time>2015-11-28T08:26:38Z</time>
            </trkpt>
            <trkpt lon="101.338784" lat="14.548036">
                <ele>441.380000</ele>
                <time>2015-11-28T08:27:01Z</time>
            </trkpt>
            <trkpt lon="101.337935" lat="14.548197">
                <ele>448.590000</ele>
                <time>2015-11-28T08:27:51Z</time>
            </trkpt>
            <trkpt lon="101.337013" lat="14.548442">
                <ele>446.190000</ele>
                <time>2015-11-28T08:28:21Z</time>
            </trkpt>
            <trkpt lon="101.336709" lat="14.548778">
                <ele>448.590000</ele>
                <time>2015-11-28T08:28:38Z</time>
            </trkpt>
            <trkpt lon="101.336387" lat="14.549138">
                <ele>446.670000</ele>
                <time>2015-11-28T08:28:49Z</time>
            </trkpt>
            <trkpt lon="101.335709" lat="14.549242">
                <ele>450.520000</ele>
                <time>2015-11-28T08:29:11Z</time>
            </trkpt>
            <trkpt lon="101.335075" lat="14.549684">
                <ele>453.400000</ele>
                <time>2015-11-28T08:29:40Z</time>
            </trkpt>
            <trkpt lon="101.334604" lat="14.549768">
                <ele>459.650000</ele>
                <time>2015-11-28T08:30:06Z</time>
            </trkpt>
            <trkpt lon="101.334311" lat="14.549803">
                <ele>461.570000</ele>
                <time>2015-11-28T08:30:20Z</time>
            </trkpt>
            <trkpt lon="101.333886" lat="14.549925">
                <ele>462.530000</ele>
                <time>2015-11-28T08:30:36Z</time>
            </trkpt>
            <trkpt lon="101.333107" lat="14.550239">
                <ele>460.610000</ele>
                <time>2015-11-28T08:31:00Z</time>
            </trkpt>
            <trkpt lon="101.332053" lat="14.550319">
                <ele>456.760000</ele>
                <time>2015-11-28T08:31:23Z</time>
            </trkpt>
            <trkpt lon="101.331853" lat="14.550506">
                <ele>454.840000</ele>
                <time>2015-11-28T08:31:28Z</time>
            </trkpt>
            <trkpt lon="101.331677" lat="14.550865">
                <ele>450.520000</ele>
                <time>2015-11-28T08:31:34Z</time>
            </trkpt>
            <trkpt lon="101.331501" lat="14.552321">
                <ele>443.790000</ele>
                <time>2015-11-28T08:32:09Z</time>
            </trkpt>
            <trkpt lon="101.331657" lat="14.552681">
                <ele>447.630000</ele>
                <time>2015-11-28T08:32:22Z</time>
            </trkpt>
            <trkpt lon="101.333785" lat="14.552907">
                <ele>442.820000</ele>
                <time>2015-11-28T08:33:02Z</time>
            </trkpt>
            <trkpt lon="101.335153" lat="14.553021">
                <ele>436.580000</ele>
                <time>2015-11-28T08:33:21Z</time>
            </trkpt>
            <trkpt lon="101.336925" lat="14.553657">
                <ele>439.460000</ele>
                <time>2015-11-28T08:33:55Z</time>
            </trkpt>
            <trkpt lon="101.337713" lat="14.553778">
                <ele>439.460000</ele>
                <time>2015-11-28T08:34:11Z</time>
            </trkpt>
            <trkpt lon="101.338357" lat="14.553634">
                <ele>440.900000</ele>
                <time>2015-11-28T08:34:25Z</time>
            </trkpt>
            <trkpt lon="101.338502" lat="14.553254">
                <ele>440.900000</ele>
                <time>2015-11-28T08:34:33Z</time>
            </trkpt>
            <trkpt lon="101.338362" lat="14.552599">
                <ele>436.580000</ele>
                <time>2015-11-28T08:34:42Z</time>
            </trkpt>
            <trkpt lon="101.338566" lat="14.552128">
                <ele>435.610000</ele>
                <time>2015-11-28T08:34:49Z</time>
            </trkpt>
            <trkpt lon="101.338927" lat="14.551954">
                <ele>435.610000</ele>
                <time>2015-11-28T08:34:55Z</time>
            </trkpt>
            <trkpt lon="101.339312" lat="14.551983">
                <ele>435.610000</ele>
                <time>2015-11-28T08:35:01Z</time>
            </trkpt>
            <trkpt lon="101.339774" lat="14.552262">
                <ele>434.650000</ele>
                <time>2015-11-28T08:35:09Z</time>
            </trkpt>
            <trkpt lon="101.339941" lat="14.552558">
                <ele>434.170000</ele>
                <time>2015-11-28T08:35:14Z</time>
            </trkpt>
            <trkpt lon="101.340127" lat="14.553493">
                <ele>434.170000</ele>
                <time>2015-11-28T08:35:29Z</time>
            </trkpt>
            <trkpt lon="101.340756" lat="14.554698">
                <ele>440.420000</ele>
                <time>2015-11-28T08:35:57Z</time>
            </trkpt>
            <trkpt lon="101.341146" lat="14.555036">
                <ele>441.860000</ele>
                <time>2015-11-28T08:36:09Z</time>
            </trkpt>
            <trkpt lon="101.341764" lat="14.555284">
                <ele>443.790000</ele>
                <time>2015-11-28T08:36:24Z</time>
            </trkpt>
            <trkpt lon="101.342333" lat="14.555228">
                <ele>444.750000</ele>
                <time>2015-11-28T08:36:37Z</time>
            </trkpt>
            <trkpt lon="101.342527" lat="14.555146">
                <ele>444.750000</ele>
                <time>2015-11-28T08:36:41Z</time>
            </trkpt>
            <trkpt lon="101.344724" lat="14.553744">
                <ele>433.210000</ele>
                <time>2015-11-28T08:37:14Z</time>
            </trkpt>
            <trkpt lon="101.345237" lat="14.553719">
                <ele>431.290000</ele>
                <time>2015-11-28T08:37:20Z</time>
            </trkpt>
            <trkpt lon="101.346012" lat="14.554266">
                <ele>431.290000</ele>
                <time>2015-11-28T08:37:33Z</time>
            </trkpt>
            <trkpt lon="101.346789" lat="14.554519">
                <ele>431.290000</ele>
                <time>2015-11-28T08:37:46Z</time>
            </trkpt>
            <trkpt lon="101.348903" lat="14.553940">
                <ele>423.600000</ele>
                <time>2015-11-28T08:38:13Z</time>
            </trkpt>
            <trkpt lon="101.349150" lat="14.554004">
                <ele>423.600000</ele>
                <time>2015-11-28T08:38:17Z</time>
            </trkpt>
            <trkpt lon="101.349517" lat="14.554255">
                <ele>426.000000</ele>
                <time>2015-11-28T08:38:25Z</time>
            </trkpt>
            <trkpt lon="101.350054" lat="14.555637">
                <ele>433.690000</ele>
                <time>2015-11-28T08:39:08Z</time>
            </trkpt>
            <trkpt lon="101.349992" lat="14.557981">
                <ele>459.170000</ele>
                <time>2015-11-28T08:41:13Z</time>
            </trkpt>
            <trkpt lon="101.350181" lat="14.558376">
                <ele>458.690000</ele>
                <time>2015-11-28T08:41:27Z</time>
            </trkpt>
            <trkpt lon="101.350257" lat="14.559015">
                <ele>452.920000</ele>
                <time>2015-11-28T08:41:38Z</time>
            </trkpt>
            <trkpt lon="101.350016" lat="14.559913">
                <ele>449.070000</ele>
                <time>2015-11-28T08:41:49Z</time>
            </trkpt>
            <trkpt lon="101.350080" lat="14.560193">
                <ele>448.590000</ele>
                <time>2015-11-28T08:41:54Z</time>
            </trkpt>
            <trkpt lon="101.350722" lat="14.560880">
                <ele>444.270000</ele>
                <time>2015-11-28T08:42:06Z</time>
            </trkpt>
            <trkpt lon="101.351644" lat="14.561452">
                <ele>442.340000</ele>
                <time>2015-11-28T08:42:20Z</time>
            </trkpt>
            <trkpt lon="101.351920" lat="14.561832">
                <ele>441.860000</ele>
                <time>2015-11-28T08:42:27Z</time>
            </trkpt>
            <trkpt lon="101.352196" lat="14.563512">
                <ele>441.380000</ele>
                <time>2015-11-28T08:42:58Z</time>
            </trkpt>
            <trkpt lon="101.351763" lat="14.564264">
                <ele>442.340000</ele>
                <time>2015-11-28T08:43:17Z</time>
            </trkpt>
            <trkpt lon="101.351727" lat="14.564589">
                <ele>442.820000</ele>
                <time>2015-11-28T08:43:24Z</time>
            </trkpt>
            <trkpt lon="101.352795" lat="14.566613">
                <ele>439.460000</ele>
                <time>2015-11-28T08:44:15Z</time>
            </trkpt>
            <trkpt lon="101.353175" lat="14.566751">
                <ele>438.980000</ele>
                <time>2015-11-28T08:44:27Z</time>
            </trkpt>
            <trkpt lon="101.353559" lat="14.566592">
                <ele>438.500000</ele>
                <time>2015-11-28T08:44:39Z</time>
            </trkpt>
            <trkpt lon="101.354094" lat="14.565700">
                <ele>438.020000</ele>
                <time>2015-11-28T08:45:06Z</time>
            </trkpt>
            <trkpt lon="101.355459" lat="14.565510">
                <ele>434.650000</ele>
                <time>2015-11-28T08:45:45Z</time>
            </trkpt>
            <trkpt lon="101.356187" lat="14.565261">
                <ele>432.730000</ele>
                <time>2015-11-28T08:46:08Z</time>
            </trkpt>
            <trkpt lon="101.356358" lat="14.564924">
                <ele>432.730000</ele>
                <time>2015-11-28T08:46:20Z</time>
            </trkpt>
            <trkpt lon="101.356381" lat="14.564413">
                <ele>431.770000</ele>
                <time>2015-11-28T08:46:37Z</time>
            </trkpt>
            <trkpt lon="101.358953" lat="14.564542">
                <ele>426.480000</ele>
                <time>2015-11-28T08:48:25Z</time>
            </trkpt>
            <trkpt lon="101.359234" lat="14.564422">
                <ele>426.000000</ele>
                <time>2015-11-28T08:48:38Z</time>
            </trkpt>
            <trkpt lon="101.359352" lat="14.563604">
                <ele>424.560000</ele>
                <time>2015-11-28T08:49:14Z</time>
            </trkpt>
            <trkpt lon="101.359083" lat="14.563344">
                <ele>424.560000</ele>
                <time>2015-11-28T08:49:29Z</time>
            </trkpt>
            <trkpt lon="101.358935" lat="14.561250">
                <ele>430.330000</ele>
                <time>2015-11-28T08:50:50Z</time>
            </trkpt>
            <trkpt lon="101.358415" lat="14.559787">
                <ele>438.500000</ele>
                <time>2015-11-28T08:53:07Z</time>
            </trkpt>
            <trkpt lon="101.357932" lat="14.559275">
                <ele>444.750000</ele>
                <time>2015-11-28T08:53:44Z</time>
            </trkpt>
            <trkpt lon="101.356828" lat="14.558989">
                <ele>450.520000</ele>
                <time>2015-11-28T08:54:40Z</time>
            </trkpt>
            <trkpt lon="101.355943" lat="14.559083">
                <ele>451.000000</ele>
                <time>2015-11-28T08:55:10Z</time>
            </trkpt>
            <trkpt lon="101.354512" lat="14.559307">
                <ele>443.310000</ele>
                <time>2015-11-28T08:55:41Z</time>
            </trkpt>
            <trkpt lon="101.353928" lat="14.559696">
                <ele>439.940000</ele>
                <time>2015-11-28T08:55:54Z</time>
            </trkpt>
            <trkpt lon="101.353723" lat="14.559697">
                <ele>439.460000</ele>
                <time>2015-11-28T08:55:58Z</time>
            </trkpt>
            <trkpt lon="101.352753" lat="14.559167">
                <ele>438.020000</ele>
                <time>2015-11-28T08:56:19Z</time>
            </trkpt>
            <trkpt lon="101.352306" lat="14.558569">
                <ele>442.820000</ele>
                <time>2015-11-28T08:56:40Z</time>
            </trkpt>
            <trkpt lon="101.350802" lat="14.558126">
                <ele>453.400000</ele>
                <time>2015-11-28T08:57:36Z</time>
            </trkpt>
            <trkpt lon="101.350208" lat="14.558189">
                <ele>457.240000</ele>
                <time>2015-11-28T08:58:04Z</time>
            </trkpt>
            <trkpt lon="101.350035" lat="14.557918">
                <ele>457.720000</ele>
                <time>2015-11-28T08:58:18Z</time>
            </trkpt>
            <trkpt lon="101.350293" lat="14.555346">
                <ele>430.330000</ele>
                <time>2015-11-28T08:58:40Z</time>
            </trkpt>
            <trkpt lon="101.351350" lat="14.553667">
                <ele>424.560000</ele>
                <time>2015-11-28T08:58:58Z</time>
            </trkpt>
            <trkpt lon="101.351780" lat="14.552673">
                <ele>422.160000</ele>
                <time>2015-11-28T08:59:11Z</time>
            </trkpt>
            <trkpt lon="101.352032" lat="14.551451">
                <ele>420.230000</ele>
                <time>2015-11-28T08:59:27Z</time>
            </trkpt>
            <trkpt lon="101.351927" lat="14.549791">
                <ele>410.140000</ele>
                <time>2015-11-28T08:59:47Z</time>
            </trkpt>
            <trkpt lon="101.352035" lat="14.549098">
                <ele>407.260000</ele>
                <time>2015-11-28T08:59:55Z</time>
            </trkpt>
            <trkpt lon="101.352524" lat="14.547801">
                <ele>405.810000</ele>
                <time>2015-11-28T09:00:14Z</time>
            </trkpt>
            <trkpt lon="101.353081" lat="14.546936">
                <ele>405.330000</ele>
                <time>2015-11-28T09:00:30Z</time>
            </trkpt>
            <trkpt lon="101.353620" lat="14.546054">
                <ele>404.370000</ele>
                <time>2015-11-28T09:00:47Z</time>
            </trkpt>
            <trkpt lon="101.353863" lat="14.545197">
                <ele>400.530000</ele>
                <time>2015-11-28T09:01:00Z</time>
            </trkpt>
            <trkpt lon="101.353983" lat="14.543638">
                <ele>394.280000</ele>
                <time>2015-11-28T09:01:20Z</time>
            </trkpt>
            <trkpt lon="101.353886" lat="14.542434">
                <ele>390.910000</ele>
                <time>2015-11-28T09:01:36Z</time>
            </trkpt>
            <trkpt lon="101.354037" lat="14.541419">
                <ele>390.910000</ele>
                <time>2015-11-28T09:01:52Z</time>
            </trkpt>
            <trkpt lon="101.354302" lat="14.541259">
                <ele>392.360000</ele>
                <time>2015-11-28T09:01:59Z</time>
            </trkpt>
            <trkpt lon="101.356617" lat="14.541428">
                <ele>388.990000</ele>
                <time>2015-11-28T09:02:32Z</time>
            </trkpt>
            <trkpt lon="101.358193" lat="14.541331">
                <ele>388.030000</ele>
                <time>2015-11-28T09:02:58Z</time>
            </trkpt>
            <trkpt lon="101.358145" lat="14.541449">
                <ele>389.470000</ele>
                <time>2015-11-28T09:03:02Z</time>
            </trkpt>
            <trkpt lon="101.357578" lat="14.541947">
                <ele>390.910000</ele>
                <time>2015-11-28T09:03:19Z</time>
            </trkpt>
            <trkpt lon="101.356858" lat="14.542287">
                <ele>391.390000</ele>
                <time>2015-11-28T09:03:33Z</time>
            </trkpt>
            <trkpt lon="101.356923" lat="14.542890">
                <ele>394.280000</ele>
                <time>2015-11-28T09:04:14Z</time>
            </trkpt>
            <trkpt lon="101.356954" lat="14.542902">
                <ele>394.280000</ele>
                <time>2015-11-28T09:04:37Z</time>
            </trkpt>
        </trkseg>
    </trk>
</gpx>